Forside
METAR-TAF:

METAR-TAF

Lufthavne :

Mankato, Minnesota, USA

Breddekreds: 44-13N, længdekreds: 093-55W, højde: 311 m

Aktuelle vejr

Denne rapport blev lavet for 47 minutter siden, kl. 23:56 UTC
Vind 13 kt fra nordnordvest
Temperatur 18°C
Fugtighed 34%
Tryk 1015 hPa
Sigt: 16.1 km
Brudte skyer i en højde af 7000 ft

METAR: KMKT 212356Z AUTO 33013KT 10SM BKN070 18/02 A2996 RMK AO2 SLP147 T01780017 10189 20167 58004

Tid: 19:43 (00:43 UTC)

Vejrudsigter

Denne rapport blev lavet for 1 time og 23 minutter siden, kl. 23:20 UTC
Foreløbig gælder fra 22 på 00 UTC til 22 på 24 UTC
Vind 9 kt fra nordvest
Sigt: 10 km
Brudte skyer i en højde af 8000 ft
Fra 22 på 0300 UTC
Vind 3 kt fra varierende retninger
Sigt: 10 km
skyfri
Fra 22 på 1600 UTC
Vind 5 kt fra syd
Sigt: 10 km
Nogle få skyer i en højde af 15000 ft

TAF: KMKT 212320Z 2200/2224 32009KT P6SM BKN080 FM220300 VRB03KT P6SM SKC FM221600 18005KT P6SM FEW150

Vejrobservationer og prognoser fra mere end 4000 lufthavne (METAR og TAF).

De gule og røde prikker repræsenterer de meteorologiske stationer.

Flyt musen over at se navnet på stationen.

Så klik over at se vejr observationer og prognoser.

At skifte det kort: Klik på de grønne knapper med et sort kors for at zoome ind; på den grønne knap med en bindestreg for at zoome ud; eller på de grønne pile for tilstødende kort.


METAR-TAF: